Time;durP1;ratioP1;P1;durP2;ratioP2;P2;SDS_P1;SDS_P2;PMS_P1;PMS_P2;Temp;Humidity;BMP_temperature;BMP_pressure;BME280_temperature;BME280_humidity;BME280_pressure;Samples;Min_cycle;Max_cycle;Signal;HPM_P1;HPM_P2
2022/10/04 00:02:02;;;;;;;15.90;8.88;;;13.30;99.90;;;;;;4999385;28;20038;-46
2022/10/04 00:04:40;;;;;;;14.80;8.95;;;13.40;99.90;;;;;;5012952;28;20030;-47
2022/10/04 00:07:18;;;;;;;15.18;9.73;;;13.40;99.90;;;;;;5013581;28;20033;-53
2022/10/04 00:09:46;;;;;;;15.77;9.55;;;13.40;99.90;;;;;;4988436;28;20026;-51
2022/10/04 00:12:23;;;;;;;14.73;9.32;;;13.30;99.90;;;;;;5013980;28;20028;-44
2022/10/04 00:14:52;;;;;;;15.07;8.95;;;13.30;99.90;;;;;;4988051;28;20021;-46
2022/10/04 00:17:24;;;;;;;15.13;9.10;;;13.30;99.90;;;;;;5011821;28;20018;-46
2022/10/04 00:19:51;;;;;;;16.60;8.23;;;13.40;99.90;;;;;;4986729;28;20037;-51
2022/10/04 00:22:19;;;;;;;11.20;7.60;;;13.50;99.90;;;;;;5013729;28;20053;-49
2022/10/04 00:25:16;;;;;;;12.98;7.38;;;13.50;99.90;;;;;;5013377;28;20101;-47
2022/10/04 00:28:20;;;;;;;11.48;7.50;;;13.60;99.90;;;;;;5008500;28;20030;-48
2022/10/04 00:31:20;;;;;;;13.50;7.43;;;13.60;99.90;;;;;;4989381;28;20044;-49
2022/10/04 00:34:25;;;;;;;13.95;7.78;;;13.70;99.90;;;;;;5013689;28;20014;-51
2022/10/04 00:36:52;;;;;;;10.25;6.70;;;13.70;99.90;;;;;;5013084;28;20034;-48
2022/10/04 00:39:40;;;;;;;12.80;7.22;;;13.70;99.90;;;;;;5002305;28;20056;-52
2022/10/04 00:42:42;;;;;;;11.90;6.13;;;13.70;99.90;;;;;;4998612;28;20459;-43
2022/10/04 00:45:13;;;;;;;12.68;6.28;;;13.70;99.90;;;;;;4939059;28;20042;-47
2022/10/04 00:47:45;;;;;;;9.32;5.80;;;13.80;99.90;;;;;;5009277;28;20050;-43
2022/10/04 00:50:29;;;;;;;12.13;6.30;;;13.80;99.90;;;;;;5007433;28;20034;-43
2022/10/04 00:52:57;;;;;;;12.63;6.38;;;13.80;99.90;;;;;;4990827;28;20057;-50
2022/10/04 00:55:34;;;;;;;10.23;7.17;;;13.80;99.90;;;;;;5013075;28;20029;-48
2022/10/04 00:58:03;;;;;;;10.10;6.25;;;13.80;99.90;;;;;;5006163;28;20184;-45
2022/10/04 01:00:32;;;;;;;10.85;5.82;;;13.80;99.90;;;;;;5007928;28;20064;-44
2022/10/04 01:03:06;;;;;;;9.07;5.95;;;13.80;99.90;;;;;;5012968;28;20026;-43
2022/10/04 01:05:45;;;;;;;10.10;5.85;;;13.80;99.90;;;;;;5012770;28;20038;-50
2022/10/04 01:08:34;;;;;;;13.93;5.75;;;13.80;99.90;;;;;;5004990;28;20030;-55
2022/10/04 01:11:15;;;;;;;13.27;5.85;;;13.90;99.90;;;;;;5010149;28;20038;-47
2022/10/04 01:14:03;;;;;;;13.90;6.03;;;13.90;99.90;;;;;;5012753;28;20535;-47
2022/10/04 01:16:32;;;;;;;10.73;5.80;;;14.00;99.90;;;;;;5012845;28;20072;-43
2022/10/04 01:19:25;;;;;;;9.93;5.40;;;14.00;99.90;;;;;;5005100;28;20033;-43
2022/10/04 01:22:04;;;;;;;12.30;5.60;;;14.10;99.90;;;;;;5001605;28;20034;-47
2022/10/04 01:24:33;;;;;;;9.35;5.35;;;14.10;99.90;;;;;;5006753;28;20034;-56
2022/10/04 01:26:59;;;;;;;10.02;4.82;;;14.10;99.90;;;;;;4994826;28;20069;-43
2022/10/04 01:29:27;;;;;;;11.23;4.68;;;14.20;99.90;;;;;;5005656;28;20160;-44
2022/10/04 01:31:56;;;;;;;11.65;5.30;;;14.30;99.90;;;;;;5012123;28;20021;-46
2022/10/04 01:34:24;;;;;;;8.80;5.05;;;14.30;99.90;;;;;;5012405;28;20022;-43
2022/10/04 01:36:53;;;;;;;8.20;4.65;;;14.40;99.90;;;;;;5012211;28;20072;-48
2022/10/04 01:39:22;;;;;;;12.00;5.50;;;14.40;99.90;;;;;;5003619;28;20034;-46
2022/10/04 01:42:07;;;;;;;12.33;4.93;;;14.50;99.90;;;;;;5012268;28;20095;-43
2022/10/04 01:44:52;;;;;;;9.77;5.13;;;14.50;99.90;;;;;;5011986;28;20030;-52
2022/10/04 01:47:26;;;;;;;12.38;5.65;;;14.60;99.90;;;;;;5012247;28;20033;-45
2022/10/04 01:49:55;;;;;;;16.90;5.93;;;14.60;99.90;;;;;;4995512;28;20067;-48
2022/10/04 01:52:40;;;;;;;21.07;5.70;;;14.70;99.90;;;;;;5011982;28;20022;-46
2022/10/04 01:55:13;;;;;;;11.77;5.43;;;14.80;99.90;;;;;;5012091;28;20107;-48
2022/10/04 01:57:51;;;;;;;11.02;5.43;;;14.80;99.90;;;;;;5009371;28;20087;-51
2022/10/04 02:00:20;;;;;;;11.60;6.28;;;14.90;99.90;;;;;;4998043;28;20401;-51
2022/10/04 02:03:09;;;;;;;15.38;6.07;;;14.90;99.90;;;;;;4995326;28;20069;-46
2022/10/04 02:05:41;;;;;;;23.63;6.38;;;15.00;99.90;;;;;;5006790;28;20077;-44
2022/10/04 02:08:12;;;;;;;14.30;6.10;;;15.00;99.90;;;;;;5005881;28;20026;-45
2022/10/04 02:10:39;;;;;;;13.27;6.03;;;15.10;99.90;;;;;;5005941;28;20042;-45
2022/10/04 02:13:10;;;;;;;14.55;7.18;;;15.10;99.90;;;;;;5011799;28;20021;-45
2022/10/04 02:15:39;;;;;;;9.02;6.07;;;15.10;99.90;;;;;;5011552;28;20444;-44
2022/10/04 02:18:17;;;;;;;14.38;6.32;;;15.10;99.90;;;;;;5006315;28;20161;-47
2022/10/04 02:20:43;;;;;;;9.15;5.63;;;15.10;99.90;;;;;;5004845;28;20488;-52
2022/10/04 02:23:10;;;;;;;13.23;7.13;;;15.10;99.90;;;;;;4985843;28;20800;-47
2022/10/04 02:25:37;;;;;;;15.43;7.00;;;15.20;99.90;;;;;;5011263;28;20661;-54
2022/10/04 02:28:09;;;;;;;13.52;6.85;;;15.20;99.90;;;;;;5009578;28;20096;-45
2022/10/04 02:33:39;;;;;;;13.63;7.00;;;15.20;99.90;;;;;;5011553;28;20072;-51
2022/10/04 02:36:07;;;;;;;19.40;7.15;;;15.20;99.90;;;;;;4993869;28;20028;-49
2022/10/04 02:38:36;;;;;;;16.33;6.20;;;15.30;99.90;;;;;;5002282;28;20031;-49
2022/10/04 02:41:20;;;;;;;12.63;6.10;;;15.30;99.90;;;;;;4997598;28;20026;-50
2022/10/04 02:43:56;;;;;;;13.45;5.78;;;15.30;99.90;;;;;;5011371;28;20026;-49
2022/10/04 02:46:29;;;;;;;13.65;5.03;;;15.30;99.90;;;;;;4985052;28;20129;-44
2022/10/04 02:48:59;;;;;;;12.30;4.82;;;15.30;99.90;;;;;;4999926;28;20027;-45
2022/10/04 02:51:36;;;;;;;9.05;4.47;;;15.30;99.90;;;;;;4984020;28;20481;-50
2022/10/04 02:54:17;;;;;;;11.95;4.10;;;15.30;99.90;;;;;;5011188;28;20026;-48
2022/10/04 02:56:44;;;;;;;10.93;3.60;;;15.30;99.90;;;;;;4987438;28;20064;-45
2022/10/04 02:59:15;;;;;;;11.57;3.65;;;15.40;99.90;;;;;;4998143;28;20074;-44
2022/10/04 03:01:49;;;;;;;9.63;3.60;;;15.30;99.90;;;;;;4992911;28;20141;-49
2022/10/04 03:04:17;;;;;;;8.50;3.58;;;15.30;99.90;;;;;;5011086;28;20555;-49
2022/10/04 03:06:44;;;;;;;7.97;3.50;;;15.40;99.90;;;;;;5010957;28;20046;-46
2022/10/04 03:09:11;;;;;;;8.35;2.95;;;15.40;99.90;;;;;;4992107;28;20286;-46
2022/10/04 03:11:39;;;;;;;9.10;3.10;;;15.30;99.90;;;;;;5010913;28;20030;-44
2022/10/04 03:14:15;;;;;;;9.10;3.30;;;15.30;99.90;;;;;;5010989;28;20041;-47
2022/10/04 03:16:44;;;;;;;8.93;3.22;;;15.30;99.90;;;;;;5010787;28;20033;-44
2022/10/04 03:19:12;;;;;;;7.65;3.28;;;15.30;99.90;;;;;;5003835;28;20394;-45
2022/10/04 03:21:39;;;;;;;7.88;3.20;;;15.40;99.90;;;;;;4993461;28;20031;-45
2022/10/04 03:24:06;;;;;;;7.80;2.88;;;15.40;99.90;;;;;;4999470;28;20026;-47
2022/10/04 03:26:37;;;;;;;9.25;2.85;;;15.30;99.90;;;;;;5010522;28;20038;-46
2022/10/04 03:29:09;;;;;;;7.22;3.05;;;15.40;99.90;;;;;;5006363;28;20026;-54
2022/10/04 03:31:41;;;;;;;8.57;2.78;;;15.40;99.90;;;;;;5010639;28;20034;-51
2022/10/04 03:34:16;;;;;;;9.35;2.90;;;15.40;99.90;;;;;;5010889;28;20014;-45
2022/10/04 03:36:45;;;;;;;10.63;3.50;;;15.30;99.90;;;;;;5010768;28;20026;-51
2022/10/04 03:39:11;;;;;;;11.18;3.33;;;15.40;99.90;;;;;;5003690;28;20022;-49
2022/10/04 03:41:39;;;;;;;9.40;3.03;;;15.40;99.90;;;;;;5003005;28;20105;-52
2022/10/04 03:44:12;;;;;;;12.23;3.92;;;15.40;99.90;;;;;;5009295;28;20422;-51
2022/10/04 03:46:38;;;;;;;10.90;3.40;;;15.40;99.90;;;;;;5010768;28;20095;-45
2022/10/04 03:49:06;;;;;;;8.77;3.47;;;15.40;99.90;;;;;;5002562;28;20029;-45
2022/10/04 03:51:33;;;;;;;12.45;3.60;;;15.40;99.90;;;;;;5010820;28;20021;-42
2022/10/04 03:54:01;;;;;;;9.52;3.38;;;15.40;99.90;;;;;;5010762;28;20381;-45
2022/10/04 03:56:31;;;;;;;6.60;3.47;;;15.40;99.90;;;;;;5010714;28;20022;-44
2022/10/04 03:58:58;;;;;;;6.85;2.92;;;15.40;99.90;;;;;;5000542;28;20577;-48
2022/10/04 04:01:36;;;;;;;11.50;3.58;;;15.40;99.90;;;;;;4998798;28;20026;-51
2022/10/04 04:04:02;;;;;;;11.30;3.80;;;15.50;99.90;;;;;;4997807;28;20030;-48
2022/10/04 04:06:44;;;;;;;9.95;3.00;;;15.50;99.90;;;;;;4994368;28;20098;-48
2022/10/04 04:09:22;;;;;;;11.65;3.42;;;15.60;99.90;;;;;;4994215;28;20397;-47
2022/10/04 04:11:50;;;;;;;11.15;3.60;;;15.60;99.90;;;;;;4983200;28;20065;-48
2022/10/04 04:14:23;;;;;;;11.45;4.15;;;15.60;99.90;;;;;;4993608;28;20018;-45
2022/10/04 04:16:51;;;;;;;9.25;2.90;;;15.60;99.90;;;;;;4992302;28;20080;-51
2022/10/04 04:19:21;;;;;;;12.00;3.58;;;15.60;99.90;;;;;;4993569;28;20022;-47
2022/10/04 04:21:47;;;;;;;9.20;3.88;;;15.60;99.90;;;;;;4992988;28;20034;-46
2022/10/04 04:24:23;;;;;;;9.75;3.95;;;15.60;99.90;;;;;;4985978;28;20034;-45
2022/10/04 04:26:58;;;;;;;9.23;3.40;;;15.70;99.90;;;;;;4994029;28;20042;-47
2022/10/04 04:29:45;;;;;;;10.52;3.22;;;15.60;99.90;;;;;;4993797;28;20030;-44
2022/10/04 04:32:22;;;;;;;9.20;3.78;;;15.70;99.90;;;;;;5011831;28;20508;-45
2022/10/04 04:34:59;;;;;;;12.63;4.20;;;15.70;99.90;;;;;;5013653;28;20429;-47
2022/10/04 04:37:25;;;;;;;9.85;3.60;;;15.70;99.90;;;;;;4999595;28;20087;-47
2022/10/04 04:39:54;;;;;;;10.27;4.22;;;15.70;99.90;;;;;;5000750;28;20116;-50
2022/10/04 04:42:30;;;;;;;8.40;3.70;;;15.70;99.90;;;;;;4998630;28;20544;-45
2022/10/04 04:45:14;;;;;;;8.73;4.20;;;15.70;99.90;;;;;;5007498;28;20280;-52
2022/10/04 04:47:45;;;;;;;13.57;4.32;;;15.70;99.90;;;;;;4991868;28;20036;-43
2022/10/04 04:50:19;;;;;;;7.78;3.95;;;15.70;99.90;;;;;;4990097;28;20043;-44
2022/10/04 04:52:56;;;;;;;10.38;4.18;;;15.70;99.90;;;;;;4993464;28;20029;-50
2022/10/04 04:55:26;;;;;;;15.65;4.28;;;15.80;99.90;;;;;;4993245;28;20154;-49
2022/10/04 04:57:55;;;;;;;10.73;4.38;;;15.80;99.90;;;;;;4985507;28;20043;-49
2022/10/04 05:00:29;;;;;;;10.82;4.22;;;15.80;99.90;;;;;;4985834;28;20057;-44
2022/10/04 05:02:59;;;;;;;12.75;5.13;;;15.70;99.90;;;;;;4973880;28;20034;-47
2022/10/04 05:05:32;;;;;;;13.90;4.53;;;15.80;99.90;;;;;;4993103;28;20119;-45
2022/10/04 05:08:09;;;;;;;14.27;5.05;;;15.80;99.90;;;;;;4991561;28;20045;-44
2022/10/04 05:10:37;;;;;;;14.20;4.72;;;15.80;99.90;;;;;;4992417;28;20493;-54
2022/10/04 05:13:03;;;;;;;11.13;4.80;;;15.80;99.90;;;;;;4992009;28;20488;-50
2022/10/04 05:15:38;;;;;;;13.30;4.25;;;15.80;99.90;;;;;;4990164;28;20097;-49
2022/10/04 05:18:19;;;;;;;13.40;4.93;;;15.80;99.90;;;;;;4973675;28;20034;-44
2022/10/04 05:20:49;;;;;;;14.13;4.32;;;15.80;99.90;;;;;;4990599;28;20026;-44
2022/10/04 05:23:15;;;;;;;9.52;4.60;;;15.80;99.90;;;;;;4989809;28;20045;-44
2022/10/04 05:25:40;;;;;;;15.85;4.70;;;15.80;99.90;;;;;;4990679;28;20058;-47
2022/10/04 05:28:10;;;;;;;10.88;5.10;;;15.80;99.90;;;;;;4991445;28;20029;-48
2022/10/04 05:31:04;;;;;;;8.98;4.20;;;15.90;99.90;;;;;;4997999;28;20037;-47
2022/10/04 05:33:49;;;;;;;12.85;4.78;;;15.90;99.90;;;;;;5012365;28;20022;-46
2022/10/04 05:36:36;;;;;;;12.43;5.10;;;15.90;99.90;;;;;;5005624;28;20019;-45
2022/10/04 05:39:26;;;;;;;11.68;4.30;;;15.90;99.90;;;;;;5010912;28;20018;-48
2022/10/04 05:41:55;;;;;;;10.57;4.95;;;15.90;99.90;;;;;;5012083;28;20038;-45
2022/10/04 05:44:33;;;;;;;12.80;4.90;;;15.90;99.90;;;;;;4985644;28;20435;-48
2022/10/04 05:47:01;;;;;;;9.75;4.80;;;15.90;99.90;;;;;;4999676;28;20129;-53
2022/10/04 05:49:33;;;;;;;8.48;4.78;;;15.80;99.90;;;;;;5012035;28;20018;-52
2022/10/04 05:52:04;;;;;;;7.03;4.13;;;15.80;99.90;;;;;;5012031;28;20516;-44
2022/10/04 05:54:34;;;;;;;13.68;3.40;;;15.80;99.90;;;;;;5011885;28;20018;-46
2022/10/04 05:57:31;;;;;;;6.95;3.40;;;15.70;99.90;;;;;;4999502;28;20080;-43
2022/10/04 06:00:19;;;;;;;6.85;3.50;;;15.80;99.90;;;;;;4997582;28;20026;-54
2022/10/04 06:03:19;;;;;;;7.50;3.63;;;15.70;99.90;;;;;;4995815;28;20493;-50
2022/10/04 06:05:54;;;;;;;6.63;3.28;;;15.70;99.90;;;;;;5010990;28;20088;-49
2022/10/04 06:08:35;;;;;;;8.63;2.95;;;15.60;99.90;;;;;;5011727;28;20030;-50
2022/10/04 06:11:30;;;;;;;5.70;2.80;;;15.60;99.90;;;;;;5011494;28;20069;-49
2022/10/04 06:13:59;;;;;;;6.07;2.53;;;15.60;99.90;;;;;;5011718;28;20469;-47
2022/10/04 06:16:24;;;;;;;6.80;2.40;;;15.60;99.90;;;;;;5009216;28;20488;-51
2022/10/04 06:19:41;;;;;;;6.80;2.28;;;15.60;99.90;;;;;;5011479;28;20053;-51
2022/10/04 06:22:06;;;;;;;4.22;1.73;;;15.50;99.90;;;;;;4902619;29;20558;-45
2022/10/04 06:24:38;;;;;;;3.47;2.05;;;15.50;99.90;;;;;;4912538;29;20059;-46
2022/10/04 06:27:15;;;;;;;3.67;1.90;;;15.50;99.90;;;;;;4960003;28;20050;-54
2022/10/04 06:30:14;;;;;;;5.05;2.00;;;15.50;99.90;;;;;;5004661;28;20121;-54
2022/10/04 06:32:58;;;;;;;6.50;2.00;;;15.40;99.90;;;;;;4983852;28;20059;-45
2022/10/04 06:35:41;;;;;;;5.03;2.05;;;15.40;99.90;;;;;;4988737;28;20718;-46
2022/10/04 06:38:12;;;;;;;5.15;1.70;;;15.40;99.90;;;;;;4991460;28;20026;-48
2022/10/04 06:41:19;;;;;;;6.38;2.08;;;15.40;99.90;;;;;;4991625;28;20045;-47
2022/10/04 06:44:06;;;;;;;5.13;1.67;;;15.40;99.90;;;;;;4965100;28;20122;-54
2022/10/04 06:46:44;;;;;;;7.50;2.15;;;15.40;99.90;;;;;;4988345;28;20143;-50
2022/10/04 06:49:25;;;;;;;6.20;2.17;;;15.40;99.90;;;;;;4991472;28;20025;-54
2022/10/04 06:51:59;;;;;;;4.90;1.83;;;15.40;99.90;;;;;;4991487;28;20026;-44
2022/10/04 06:54:43;;;;;;;7.60;2.00;;;15.30;99.90;;;;;;4991436;28;20177;-54
2022/10/04 06:57:46;;;;;;;3.80;1.80;;;15.40;99.90;;;;;;4985288;28;20029;-57
2022/10/04 07:00:20;;;;;;;6.47;2.17;;;15.30;99.90;;;;;;4952816;28;20122;-44
2022/10/04 07:03:12;;;;;;;5.28;2.15;;;15.30;99.90;;;;;;4950968;28;20027;-49
2022/10/04 07:05:49;;;;;;;4.57;2.08;;;15.30;99.90;;;;;;4951157;28;20039;-45
2022/10/04 07:08:31;;;;;;;5.95;2.17;;;15.30;99.90;;;;;;4947481;28;20031;-47
2022/10/04 07:11:22;;;;;;;4.40;2.00;;;15.30;99.90;;;;;;4952199;28;20513;-44
2022/10/04 07:13:56;;;;;;;2.72;1.80;;;15.40;99.90;;;;;;4944831;28;20043;-45
2022/10/04 07:16:43;;;;;;;3.70;1.80;;;15.40;99.90;;;;;;4952454;28;20499;-44
2022/10/04 07:19:27;;;;;;;5.10;1.90;;;15.50;99.90;;;;;;4945371;29;20030;-51
2022/10/04 07:22:11;;;;;;;4.95;1.73;;;15.50;99.90;;;;;;4944070;28;20023;-54
2022/10/04 07:24:55;;;;;;;5.38;1.70;;;15.50;99.90;;;;;;4952278;28;20035;-47
2022/10/04 07:29:19;;;;;;;4.80;1.73;;;15.60;99.90;;;;;;4946473;28;20032;-48
2022/10/04 07:30:38;;;;;;;5.15;2.10;;;15.60;99.90;;;;;;4946881;28;20391;-49
2022/10/04 07:33:07;;;;;;;3.20;1.60;;;15.50;99.90;;;;;;4949790;28;20023;-53
2022/10/04 07:35:48;;;;;;;5.85;1.85;;;15.50;99.90;;;;;;4952063;28;20027;-49
2022/10/04 07:38:16;;;;;;;5.50;1.77;;;15.50;99.90;;;;;;4953775;28;20035;-51
2022/10/04 07:41:09;;;;;;;3.15;1.88;;;15.60;99.90;;;;;;4954384;29;20038;-46
2022/10/04 07:43:44;;;;;;;3.50;1.75;;;15.60;99.90;;;;;;4949567;28;20028;-45
2022/10/04 07:46:39;;;;;;;7.13;1.70;;;15.70;99.90;;;;;;4955232;28;20047;-48
2022/10/04 07:49:12;;;;;;;5.57;1.60;;;15.90;99.90;;;;;;4953181;29;20026;-48
2022/10/04 07:52:22;;;;;;;5.28;1.90;;;16.10;99.90;;;;;;4955976;28;20039;-50
2022/10/04 07:55:17;;;;;;;4.90;1.50;;;16.20;99.90;;;;;;4953554;29;20031;-48
2022/10/04 07:58:12;;;;;;;4.25;1.50;;;16.40;99.90;;;;;;4937547;28;20036;-53
2022/10/04 08:01:35;;;;;;;6.10;1.70;;;16.50;99.90;;;;;;4993023;28;20046;-46
2022/10/04 08:04:01;;;;;;;4.88;1.88;;;16.60;99.90;;;;;;4933966;29;20568;-49
2022/10/04 08:06:32;;;;;;;7.50;1.95;;;16.60;99.90;;;;;;4933857;29;20040;-47
2022/10/04 08:09:15;;;;;;;9.30;1.75;;;16.60;99.90;;;;;;4964043;28;20061;-55
2022/10/04 08:12:00;;;;;;;5.53;1.63;;;16.60;99.90;;;;;;4994171;28;20018;-48
2022/10/04 08:14:39;;;;;;;5.05;2.00;;;16.60;99.90;;;;;;4993564;28;20037;-48
2022/10/04 08:17:17;;;;;;;7.03;2.00;;;16.50;99.90;;;;;;4993955;28;20022;-44
2022/10/04 08:20:18;;;;;;;5.05;1.55;;;16.60;99.90;;;;;;4993763;28;20489;-48
2022/10/04 08:22:55;;;;;;;5.05;1.95;;;16.60;99.90;;;;;;4988232;28;20032;-48
2022/10/04 08:26:19;;;;;;;8.43;1.80;;;16.70;99.90;;;;;;4993524;28;20038;-54
2022/10/04 08:32:10;;;;;;;4.35;1.45;;;16.70;99.90;;;;;;5007725;28;20036;-52
2022/10/04 08:35:00;;;;;;;3.17;1.60;;;16.70;99.90;;;;;;4971402;28;20040;-46
2022/10/04 08:37:52;;;;;;;6.60;1.88;;;16.70;99.90;;;;;;4993832;28;20029;-45
2022/10/04 08:41:00;;;;;;;3.95;1.63;;;16.60;99.90;;;;;;4993655;28;20017;-49
2022/10/04 08:43:48;;;;;;;7.63;1.90;;;16.60;99.90;;;;;;4993385;28;20037;-48
2022/10/04 08:46:39;;;;;;;4.30;1.52;;;16.60;99.90;;;;;;4978415;28;20556;-44
2022/10/04 08:49:36;;;;;;;3.97;1.60;;;16.50;99.90;;;;;;4990493;28;20033;-52
2022/10/04 08:52:32;;;;;;;7.65;1.73;;;16.40;99.90;;;;;;4986936;28;20034;-45
2022/10/04 08:55:19;;;;;;;4.13;1.52;;;16.40;99.90;;;;;;4988445;28;20023;-44
2022/10/04 08:58:05;;;;;;;3.35;1.40;;;16.40;99.90;;;;;;4992444;28;20062;-47
2022/10/04 09:00:30;;;;;;;2.38;1.17;;;16.50;99.90;;;;;;4992466;28;20028;-46
2022/10/04 09:03:37;;;;;;;9.35;1.70;;;16.40;99.90;;;;;;4992043;28;20113;-46
2022/10/04 09:06:32;;;;;;;3.97;1.45;;;16.40;99.90;;;;;;4972733;28;20046;-46
2022/10/04 09:09:25;;;;;;;3.72;1.50;;;16.50;99.90;;;;;;4982326;28;20126;-48
2022/10/04 09:12:05;;;;;;;4.43;1.52;;;16.60;99.90;;;;;;4992546;28;20121;-45
2022/10/04 09:14:54;;;;;;;2.85;1.30;;;16.70;99.90;;;;;;4990256;28;20509;-47
2022/10/04 09:17:38;;;;;;;4.35;1.40;;;16.80;99.90;;;;;;4992781;28;20023;-47
2022/10/04 09:20:22;;;;;;;3.95;1.40;;;16.90;99.90;;;;;;4992460;28;20601;-53
2022/10/04 09:22:56;;;;;;;4.78;1.17;;;17.00;99.90;;;;;;4992192;28;20029;-52
2022/10/04 09:25:30;;;;;;;3.00;1.30;;;17.20;99.90;;;;;;4991865;28;20513;-45
2022/10/04 09:28:15;;;;;;;4.18;1.02;;;17.40;99.90;;;;;;4992027;28;20039;-47
2022/10/04 09:30:43;;;;;;;2.55;0.93;;;17.50;99.90;;;;;;4997824;28;20060;-51
2022/10/04 09:33:21;;;;;;;4.30;1.07;;;17.50;99.90;;;;;;4992859;28;20054;-54
2022/10/04 09:36:01;;;;;;;3.63;1.08;;;17.60;99.90;;;;;;4988761;28;20279;-50
2022/10/04 09:38:27;;;;;;;3.88;1.10;;;17.70;99.90;;;;;;4991127;28;20026;-47
2022/10/04 09:41:27;;;;;;;5.22;1.00;;;18.30;99.90;;;;;;4991524;28;20030;-48
2022/10/04 09:44:17;;;;;;;3.08;1.00;;;19.20;99.90;;;;;;4984200;28;20082;-50
2022/10/04 09:47:09;;;;;;;4.28;1.00;;;20.40;99.90;;;;;;4991896;28;20423;-49
2022/10/04 09:49:49;;;;;;;4.40;1.23;;;20.60;99.90;;;;;;4991891;28;20019;-53
2022/10/04 17:05:29;;;;;;;5.03;2.10;;;16.00;99.90;;;;;;5045527;28;20439;-45
2022/10/04 17:08:21;;;;;;;7.15;1.90;;;15.70;99.90;;;;;;5049729;28;20479;-44
2022/10/04 17:10:52;;;;;;;4.53;1.55;;;15.70;99.90;;;;;;5043196;28;20029;-45
2022/10/04 17:13:22;;;;;;;3.70;0.98;;;15.70;99.90;;;;;;5045907;28;20028;-46
2022/10/04 17:16:41;;;;;;;5.35;1.20;;;15.70;99.90;;;;;;5046071;28;20032;-44
2022/10/04 17:19:27;;;;;;;3.65;1.42;;;15.80;99.90;;;;;;5020921;28;20034;-48
2022/10/04 17:22:05;;;;;;;4.97;1.60;;;15.80;99.90;;;;;;5040782;28;20064;-48
2022/10/04 17:24:48;;;;;;;4.68;1.17;;;15.80;99.90;;;;;;5043401;28;20079;-49
2022/10/04 17:27:39;;;;;;;4.80;1.38;;;15.80;99.90;;;;;;5043732;28;20029;-46
2022/10/04 17:30:18;;;;;;;3.33;1.35;;;15.80;99.90;;;;;;5044487;28;20026;-51
2022/10/04 17:33:05;;;;;;;6.95;1.40;;;15.80;99.90;;;;;;5045567;28;20032;-47
2022/10/04 17:35:36;;;;;;;10.32;3.30;;;15.80;99.90;;;;;;5045497;28;20109;-51
2022/10/04 17:38:28;;;;;;;15.60;5.30;;;15.90;99.90;;;;;;5043893;28;20036;-48
2022/10/04 17:41:12;;;;;;;4.60;1.40;;;15.90;99.90;;;;;;5040872;28;20041;-50
2022/10/04 17:44:03;;;;;;;6.03;1.40;;;15.90;99.90;;;;;;5042176;28;20060;-45
2022/10/04 17:46:55;;;;;;;7.07;1.40;;;15.90;99.90;;;;;;5043317;28;20104;-51
2022/10/04 17:55:18;;;;;;;6.00;1.40;;;16.00;99.90;;;;;;5031077;28;20587;-45
2022/10/04 17:57:58;;;;;;;7.75;1.77;;;16.00;99.90;;;;;;5030659;28;20477;-44
2022/10/04 18:00:25;;;;;;;6.70;1.40;;;16.00;99.90;;;;;;5033626;28;20468;-46
2022/10/04 18:03:12;;;;;;;6.07;1.33;;;16.00;99.90;;;;;;5029197;28;20033;-48
2022/10/04 18:05:40;;;;;;;5.72;1.17;;;16.10;99.90;;;;;;5036762;28;20029;-44
2022/10/04 18:08:31;;;;;;;6.70;1.38;;;16.10;99.90;;;;;;5028166;28;20029;-44
2022/10/04 18:11:02;;;;;;;6.28;1.50;;;16.10;99.90;;;;;;5029591;28;20044;-45
2022/10/04 18:14:10;;;;;;;4.88;1.05;;;16.10;99.90;;;;;;5036363;28;20025;-51
2022/10/04 18:16:44;;;;;;;4.60;1.20;;;16.10;99.90;;;;;;5006321;28;20037;-44
2022/10/04 18:19:33;;;;;;;3.42;1.27;;;16.10;99.90;;;;;;5022092;28;20547;-44
2022/10/04 18:22:20;;;;;;;5.20;1.30;;;16.10;99.90;;;;;;5014824;28;20030;-44
2022/10/04 18:24:47;;;;;;;6.93;2.55;;;16.10;99.90;;;;;;5019805;28;20045;-45
2022/10/04 18:27:21;;;;;;;8.43;1.55;;;16.10;99.90;;;;;;5017816;28;20034;-44
2022/10/04 18:30:14;;;;;;;6.22;1.27;;;16.20;99.90;;;;;;5033026;28;20025;-46
2022/10/04 18:32:56;;;;;;;6.28;1.95;;;16.20;99.90;;;;;;5027544;28;20029;-47
2022/10/04 18:35:27;;;;;;;9.25;1.75;;;16.10;99.90;;;;;;5028585;28;20076;-48
2022/10/04 18:38:19;;;;;;;6.47;1.80;;;16.20;99.90;;;;;;5017014;28;20290;-52
2022/10/04 18:40:55;;;;;;;6.90;1.50;;;16.20;99.90;;;;;;5016093;28;20036;-48
2022/10/04 18:43:26;;;;;;;5.50;1.27;;;16.20;99.90;;;;;;5021595;28;20037;-49
2022/10/04 18:46:20;;;;;;;8.80;1.48;;;16.20;99.90;;;;;;5024290;28;20482;-45
2022/10/04 18:49:00;;;;;;;6.03;1.38;;;16.10;99.90;;;;;;5019016;28;20223;-49
2022/10/04 18:51:39;;;;;;;7.07;1.13;;;16.20;99.90;;;;;;5021833;28;20026;-46
2022/10/04 18:54:21;;;;;;;7.45;1.10;;;16.20;99.90;;;;;;5033225;28;20484;-49
2022/10/04 18:57:01;;;;;;;6.68;1.45;;;16.20;99.90;;;;;;5032847;28;20385;-49
2022/10/04 19:02:46;;;;;;;5.63;0.88;;;16.20;99.90;;;;;;5032860;28;20033;-44
2022/10/04 19:05:16;;;;;;;7.90;1.98;;;16.20;99.90;;;;;;5032743;28;20025;-49
2022/10/04 19:07:53;;;;;;;7.25;1.40;;;16.20;99.90;;;;;;5032964;28;20034;-52
2022/10/04 19:10:25;;;;;;;8.02;1.20;;;16.30;99.90;;;;;;5033010;28;20424;-48
2022/10/04 19:13:22;;;;;;;5.05;1.20;;;16.30;99.90;;;;;;5032640;28;20125;-47
2022/10/04 19:15:59;;;;;;;3.55;0.88;;;16.30;99.90;;;;;;5029001;28;20811;-44
2022/10/04 19:18:27;;;;;;;6.68;1.00;;;16.30;99.90;;;;;;5026291;28;20048;-51
2022/10/04 19:21:33;;;;;;;4.93;0.95;;;16.30;99.90;;;;;;5026175;28;20427;-47
2022/10/04 19:24:14;;;;;;;5.93;1.10;;;16.30;99.90;;;;;;5016072;28;20087;-50
2022/10/04 19:26:49;;;;;;;4.68;1.17;;;16.30;99.90;;;;;;5031210;28;20400;-49
2022/10/04 19:29:17;;;;;;;2.75;0.90;;;16.20;99.90;;;;;;5030867;28;20026;-46
2022/10/04 19:31:53;;;;;;;5.10;1.30;;;16.20;99.90;;;;;;5028836;28;20021;-48
2022/10/04 19:34:58;;;;;;;5.82;0.90;;;16.30;99.90;;;;;;5029509;28;20412;-47
2022/10/04 19:37:59;;;;;;;5.13;1.10;;;16.30;99.90;;;;;;5030078;28;20040;-47
2022/10/04 19:40:43;;;;;;;6.32;1.17;;;16.30;99.90;;;;;;5029900;28;20026;-46
2022/10/04 19:43:14;;;;;;;4.75;1.30;;;16.30;99.90;;;;;;5030577;28;20029;-50
2022/10/04 19:46:00;;;;;;;2.45;1.05;;;16.30;99.90;;;;;;5031429;28;20021;-45
2022/10/04 19:48:32;;;;;;;6.43;1.10;;;16.30;99.90;;;;;;5031134;28;20052;-52
2022/10/04 19:51:14;;;;;;;6.53;1.08;;;16.30;99.90;;;;;;5031621;28;20026;-45
2022/10/04 19:53:44;;;;;;;4.93;0.98;;;16.30;99.90;;;;;;5031723;28;20048;-48
2022/10/04 19:56:18;;;;;;;3.97;0.93;;;16.30;99.90;;;;;;5031114;28;20021;-45
2022/10/04 19:58:49;;;;;;;9.05;1.02;;;16.30;99.90;;;;;;5031322;28;20022;-49
2022/10/04 20:01:21;;;;;;;6.70;0.95;;;16.30;99.90;;;;;;5031101;28;20392;-45
2022/10/04 20:04:33;;;;;;;4.07;0.90;;;16.30;99.90;;;;;;5031016;28;20044;-47
2022/10/04 20:06:33;;;;;;;4.10;0.73;;;16.30;99.90;;;;;;5030511;28;20021;-46
2022/10/04 20:09:20;;;;;;;6.05;0.90;;;16.30;99.90;;;;;;5031159;28;20396;-45
2022/10/04 20:11:48;;;;;;;4.72;1.00;;;16.30;99.90;;;;;;5024863;28;20060;-43
2022/10/04 20:14:14;;;;;;;3.72;0.80;;;16.30;99.90;;;;;;5029799;28;20559;-46
2022/10/04 20:16:45;;;;;;;6.78;0.90;;;16.30;99.90;;;;;;5030957;28;20079;-44
2022/10/04 20:19:19;;;;;;;5.18;0.90;;;16.30;99.90;;;;;;5030984;28;20036;-48
2022/10/04 20:21:45;;;;;;;4.57;0.90;;;16.30;99.90;;;;;;5029413;28;20097;-47
2022/10/04 20:24:36;;;;;;;3.72;0.98;;;16.30;99.90;;;;;;5029384;28;20064;-47
2022/10/04 20:27:25;;;;;;;5.28;1.00;;;16.30;99.90;;;;;;5029144;28;20036;-48
2022/10/04 20:29:51;;;;;;;6.25;1.10;;;16.30;99.90;;;;;;5029398;28;20064;-44
2022/10/04 20:32:26;;;;;;;3.17;1.10;;;16.30;99.90;;;;;;5029308;28;20448;-44
2022/10/04 20:34:53;;;;;;;3.13;0.90;;;16.30;99.90;;;;;;5029867;28;20033;-50
2022/10/04 20:37:20;;;;;;;4.88;1.25;;;16.20;99.90;;;;;;5030737;28;20022;-45
2022/10/04 20:39:46;;;;;;;5.95;1.00;;;16.20;99.90;;;;;;5030170;28;20029;-55
2022/10/04 20:42:30;;;;;;;7.85;1.00;;;16.20;99.90;;;;;;5029648;28;20028;-47
2022/10/04 20:45:02;;;;;;;2.90;0.85;;;16.30;99.90;;;;;;5029259;28;20041;-47
2022/10/04 20:47:45;;;;;;;5.53;1.10;;;16.20;99.90;;;;;;5030725;28;20018;-48
2022/10/04 20:50:38;;;;;;;6.10;1.10;;;16.30;99.90;;;;;;5028439;28;20051;-53
2022/10/04 20:53:33;;;;;;;8.07;1.00;;;16.30;99.90;;;;;;5030444;28;20026;-47
2022/10/04 20:56:25;;;;;;;5.80;1.30;;;16.30;99.90;;;;;;5019151;28;20037;-48
2022/10/04 20:58:59;;;;;;;5.25;1.05;;;16.30;99.90;;;;;;5030320;28;20034;-47
2022/10/04 21:06:56;;;;;;;3.75;1.10;;;16.30;99.90;;;;;;5027680;28;20032;-48
2022/10/04 21:09:22;;;;;;;5.95;1.20;;;16.30;99.90;;;;;;5030160;28;20026;-45
2022/10/04 21:11:52;;;;;;;4.78;1.42;;;16.30;99.90;;;;;;5029989;28;20029;-45
2022/10/04 21:14:26;;;;;;;6.03;1.50;;;16.30;99.90;;;;;;5028524;28;20557;-46
2022/10/04 21:16:56;;;;;;;11.23;1.70;;;16.30;99.90;;;;;;5027232;28;20030;-51